sensor_id;sensor_type;location;lat;lon;timestamp;temperature;humidity
8736;DHT22;4404;49.308;12.178;2023-02-15T08:17:57;0.30;99.90
8736;DHT22;4404;49.308;12.178;2023-02-15T08:23:59;1.90;99.90
8736;DHT22;4404;49.308;12.178;2023-02-15T08:30:02;1.90;99.90
8736;DHT22;4404;49.308;12.178;2023-02-15T08:36:08;1.90;99.90
8736;DHT22;4404;49.308;12.178;2023-02-15T08:42:10;1.80;99.90
8736;DHT22;4404;49.308;12.178;2023-02-15T08:48:12;1.90;99.90
8736;DHT22;4404;49.308;12.178;2023-02-15T08:54:17;1.90;99.90
8736;DHT22;4404;49.308;12.178;2023-02-15T09:00:21;1.90;99.90
8736;DHT22;4404;49.308;12.178;2023-02-15T09:06:24;1.80;99.90
8736;DHT22;4404;49.308;12.178;2023-02-15T09:12:27;1.80;99.90
8736;DHT22;4404;49.308;12.178;2023-02-15T09:18:30;1.80;99.90
8736;DHT22;4404;49.308;12.178;2023-02-15T09:24:35;1.80;99.90
8736;DHT22;4404;49.308;12.178;2023-02-15T09:30:39;1.90;99.90
8736;DHT22;4404;49.308;12.178;2023-02-15T09:36:41;1.90;99.90
8736;DHT22;4404;49.308;12.178;2023-02-15T09:43:01;1.80;99.90
8736;DHT22;4404;49.308;12.178;2023-02-15T09:49:20;1.90;99.90
8736;DHT22;4404;49.308;12.178;2023-02-15T09:55:39;2.00;99.90
8736;DHT22;4404;49.308;12.178;2023-02-15T10:01:55;2.00;99.90
8736;DHT22;4404;49.308;12.178;2023-02-15T10:08:24;1.90;99.90
8736;DHT22;4404;49.308;12.178;2023-02-15T10:14:53;2.00;99.90
8736;DHT22;4404;49.308;12.178;2023-02-15T10:21:20;2.00;99.90
8736;DHT22;4404;49.308;12.178;2023-02-15T10:27:32;2.20;99.90
8736;DHT22;4404;49.308;12.178;2023-02-15T10:33:39;2.20;99.90
8736;DHT22;4404;49.308;12.178;2023-02-15T10:39:49;2.20;99.90
8736;DHT22;4404;49.308;12.178;2023-02-15T10:46:02;2.30;99.90
8736;DHT22;4404;49.308;12.178;2023-02-15T10:52:18;2.40;99.90
8736;DHT22;4404;49.308;12.178;2023-02-15T10:58:45;2.40;99.90
8736;DHT22;4404;49.308;12.178;2023-02-15T11:05:04;2.40;99.90
8736;DHT22;4404;49.308;12.178;2023-02-15T11:11:21;2.50;99.90
8736;DHT22;4404;49.308;12.178;2023-02-15T11:17:28;2.50;99.90
8736;DHT22;4404;49.308;12.178;2023-02-15T11:23:41;2.50;99.90
8736;DHT22;4404;49.308;12.178;2023-02-15T11:29:52;2.50;99.90
8736;DHT22;4404;49.308;12.178;2023-02-15T11:36:00;2.50;99.90
8736;DHT22;4404;49.308;12.178;2023-02-15T11:42:11;2.50;99.90
8736;DHT22;4404;49.308;12.178;2023-02-15T11:48:15;2.60;99.90
8736;DHT22;4404;49.308;12.178;2023-02-15T11:54:20;2.60;99.90
8736;DHT22;4404;49.308;12.178;2023-02-15T12:00:32;2.60;99.90
8736;DHT22;4404;49.308;12.178;2023-02-15T12:06:42;2.70;99.90
8736;DHT22;4404;49.308;12.178;2023-02-15T12:12:46;2.60;99.90
8736;DHT22;4404;49.308;12.178;2023-02-15T12:18:50;2.70;99.90
8736;DHT22;4404;49.308;12.178;2023-02-15T12:24:56;2.70;99.90
8736;DHT22;4404;49.308;12.178;2023-02-15T12:31:02;2.70;99.90
8736;DHT22;4404;49.308;12.178;2023-02-15T12:37:15;2.70;99.90
8736;DHT22;4404;49.308;12.178;2023-02-15T12:43:25;2.70;99.90
8736;DHT22;4404;49.308;12.178;2023-02-15T12:49:29;2.70;99.90
8736;DHT22;4404;49.308;12.178;2023-02-15T12:55:34;2.80;99.90
8736;DHT22;4404;49.308;12.178;2023-02-15T13:01:36;2.90;99.90
8736;DHT22;4404;49.308;12.178;2023-02-15T13:07:38;2.90;99.90
8736;DHT22;4404;49.308;12.178;2023-02-15T13:13:51;2.90;99.90
8736;DHT22;4404;49.308;12.178;2023-02-15T13:19:56;2.90;99.90
8736;DHT22;4404;49.308;12.178;2023-02-15T13:26:03;2.90;99.90
8736;DHT22;4404;49.308;12.178;2023-02-15T13:32:14;2.90;99.90
8736;DHT22;4404;49.308;12.178;2023-02-15T13:38:40;2.90;99.90
8736;DHT22;4404;49.308;12.178;2023-02-15T13:51:29;3.00;99.90
8736;DHT22;4404;49.308;12.178;2023-02-15T13:57:50;3.10;99.90
8736;DHT22;4404;49.308;12.178;2023-02-15T14:10:46;3.00;99.90
8736;DHT22;4404;49.308;12.178;2023-02-15T14:17:01;3.10;99.90
8736;DHT22;4404;49.308;12.178;2023-02-15T14:23:14;2.90;99.90
8736;DHT22;4404;49.308;12.178;2023-02-15T14:29:45;2.90;99.90
8736;DHT22;4404;49.308;12.178;2023-02-15T14:35:49;2.90;99.90
8736;DHT22;4404;49.308;12.178;2023-02-15T14:41:54;2.90;99.90
8736;DHT22;4404;49.308;12.178;2023-02-15T14:48:07;2.90;99.90
8736;DHT22;4404;49.308;12.178;2023-02-15T15:01:04;2.90;99.90
8736;DHT22;4404;49.308;12.178;2023-02-15T15:07:16;3.30;99.90
8736;DHT22;4404;49.308;12.178;2023-02-15T15:20:00;2.90;99.90
8736;DHT22;4404;49.308;12.178;2023-02-15T15:26:26;2.90;99.90
8736;DHT22;4404;49.308;12.178;2023-02-15T15:32:33;2.90;99.90
8736;DHT22;4404;49.308;12.178;2023-02-15T15:38:41;2.70;99.90
8736;DHT22;4404;49.308;12.178;2023-02-15T15:45:03;2.70;99.90
8736;DHT22;4404;49.308;12.178;2023-02-15T15:51:19;2.70;99.90
8736;DHT22;4404;49.308;12.178;2023-02-15T15:57:27;2.70;99.90
8736;DHT22;4404;49.308;12.178;2023-02-15T16:03:30;2.60;99.90
8736;DHT22;4404;49.308;12.178;2023-02-15T16:09:33;2.60;99.90
8736;DHT22;4404;49.308;12.178;2023-02-15T16:15:43;2.50;99.90
8736;DHT22;4404;49.308;12.178;2023-02-15T16:21:50;2.60;99.90
8736;DHT22;4404;49.308;12.178;2023-02-15T16:27:53;2.60;99.90
8736;DHT22;4404;49.308;12.178;2023-02-15T16:33:55;2.50;99.90
8736;DHT22;4404;49.308;12.178;2023-02-15T16:39:58;2.60;99.90
8736;DHT22;4404;49.308;12.178;2023-02-15T16:46:06;2.50;99.90
8736;DHT22;4404;49.308;12.178;2023-02-15T16:52:16;2.50;99.90
8736;DHT22;4404;49.308;12.178;2023-02-15T16:58:27;2.40;99.90
8736;DHT22;4404;49.308;12.178;2023-02-15T18:16:14;0.80;99.90
8736;DHT22;4404;49.308;12.178;2023-02-15T18:22:18;1.10;99.90
8736;DHT22;4404;49.308;12.178;2023-02-15T18:28:20;1.40;99.90
8736;DHT22;4404;49.308;12.178;2023-02-15T18:34:27;1.70;99.90
8736;DHT22;4404;49.308;12.178;2023-02-15T18:40:30;1.80;99.90
8736;DHT22;4404;49.308;12.178;2023-02-15T18:46:32;1.90;99.90
8736;DHT22;4404;49.308;12.178;2023-02-15T18:52:37;2.80;99.90
8736;DHT22;4404;49.308;12.178;2023-02-15T18:58:40;2.10;99.90
